Aeroporto :
LOGIN :

Iscrizione | Disclaimer

   EN    FR    IT 

 










Sommario :    VFR   VFR Marginale   IFR   IFR Intensivo   IFR Molto Intensivo
Visibilità : 
Base nubi : 
>= 8 km
>= 3000ft
5 / 8 km
1000 / 3000 ft
1500m / 5 km
500 / 1000 ft
800 / 1500m
200 / 500 ft
< 800m
< 200 ft
Simboli :   Temporali  Nebbia  Neve Forte  Precipitazioni Forti  Vento > 20 kt
SIGMETs :   Varie  Temporali  Ghiacco  Turbolenza  Onda orograficha  Ceneri Vulcaniche






- Altitudine del aeroporto : 242 ft
- Codice IATA : DUB


EIDW - Dublin

ULTIMO METAR :
  • 040400Z 29014KT 9999 FEW015 M00/M01 Q0982 NOSIG

METARs OBSOLETI :
  • 040330Z 30013KT 9999 FEW015 M00/M02 Q0982 NOSIG
  • 040300Z 31013KT 9999 FEW007 M00/M01 Q0983 NOSIG
  • 040230Z 30013KT 9999 FEW015 M01/M01 Q0983 NOSIG
  • 040200Z 30014KT 9999 FEW015 M01/M02 Q0982 NOSIG

TAF TAF EIDW
Valido dal 04 a 00 ore il 05 a 00 ore UTC


032300Z 0400/0424 31013KT 9999 FEW015 SCT030
PROB30
TEMPO 0405/0409 31015G25KT
BECMG 0410/0412 31020G32KT
TEMPO 0412/0418 5000 -RA BKN012
BECMG 0414/0416 34025G39KT



MetMap, La meteo Aeronautica in un colpo d'occhio ! - Copyright ORBIFLY Dicembre 2007 - Disclaimer

ORBIFLY MET'MAP TEAM :

Programmazione e sviluppo : Alexandra Zaïnal
Concezione : Baudouin d'Aumeries
Aiuto per la programmazione : Marc-Olivier Méhu
Supporto tecnico e logistico : Manuel Goepfert
Aiuto per la traduzione : Arnaldo La Scala

Contatto : metmap@orbifly.com




FONTI E CREDITI :

   NOAA